createdAt,value
2023-04-25T00:00:01.293Z,6.65
2023-04-25T00:02:29.181Z,5.78
2023-04-25T00:04:59.396Z,5.20
2023-04-25T00:07:27.816Z,4.80
2023-04-25T00:09:55.680Z,6.97
2023-04-25T00:12:23.853Z,4.95
2023-04-25T00:14:53.822Z,5.53
2023-04-25T00:17:21.419Z,3.53
2023-04-25T00:19:49.263Z,8.88
2023-04-25T00:22:16.892Z,4.80
2023-04-25T00:24:44.525Z,5.10
2023-04-25T00:27:12.188Z,5.95
2023-04-25T00:29:40.014Z,5.65
2023-04-25T00:32:09.072Z,5.20
2023-04-25T00:34:36.994Z,3.42
2023-04-25T00:37:04.679Z,4.20
2023-04-25T00:39:32.357Z,5.25
2023-04-25T00:42:00.317Z,5.15
2023-04-25T00:44:30.449Z,7.70
2023-04-25T00:46:58.563Z,5.07
2023-04-25T00:49:27.619Z,5.90
2023-04-25T00:51:55.423Z,4.93
2023-04-25T00:54:23.177Z,4.32
2023-04-25T00:56:50.962Z,6.18
2023-04-25T00:59:20.261Z,8.00
2023-04-25T01:01:48.027Z,5.63
2023-04-25T01:04:16.158Z,5.28
2023-04-25T01:06:45.962Z,6.55
2023-04-25T01:09:14.634Z,7.05
2023-04-25T01:11:42.344Z,2.85
2023-04-25T01:14:09.962Z,4.68
2023-04-25T01:16:37.839Z,7.40
2023-04-25T01:19:10.740Z,3.85
2023-04-25T01:21:39.931Z,4.72
2023-04-25T01:24:08.307Z,3.95
2023-04-25T01:26:36.907Z,3.88
2023-04-25T01:29:06.018Z,8.38
2023-04-25T01:31:35.182Z,3.92
2023-04-25T01:34:02.947Z,4.82
2023-04-25T01:36:31.419Z,5.00
2023-04-25T01:39:00.620Z,4.93
2023-04-25T01:41:28.864Z,7.88
2023-04-25T01:43:56.843Z,6.43
2023-04-25T01:46:24.597Z,4.20
2023-04-25T01:48:52.336Z,5.47
2023-04-25T01:51:20.341Z,5.60
2023-04-25T01:53:48.625Z,4.55
2023-04-25T01:56:17.766Z,5.05
2023-04-25T01:58:45.573Z,7.32
2023-04-25T02:01:13.606Z,4.45
2023-04-25T02:03:41.714Z,2.60
2023-04-25T02:06:09.672Z,5.20
2023-04-25T02:08:38.424Z,4.10
2023-04-25T02:11:06.441Z,2.78
2023-04-25T02:13:35.598Z,3.88
2023-04-25T02:16:03.497Z,3.47
2023-04-25T02:18:32.197Z,4.00
2023-04-25T02:21:00.670Z,5.32
2023-04-25T02:23:29.120Z,3.72
2023-04-25T02:25:58.934Z,4.85
2023-04-25T02:28:27.313Z,3.83
2023-04-25T02:30:56.549Z,2.83
2023-04-25T02:33:24.348Z,5.45
2023-04-25T02:35:52.050Z,2.65
2023-04-25T02:38:19.794Z,3.85
2023-04-25T02:40:47.549Z,2.72
2023-04-25T02:43:17.004Z,5.60
2023-04-25T02:45:44.741Z,3.40
2023-04-25T02:48:14.023Z,4.40
2023-04-25T02:50:42.114Z,3.15
2023-04-25T02:53:09.781Z,4.10
2023-04-25T02:55:37.699Z,12.20
2023-04-25T02:58:05.608Z,5.03
2023-04-25T03:00:33.550Z,1.65
2023-04-25T03:03:01.618Z,3.30
2023-04-25T03:05:31.130Z,5.32
2023-04-25T03:07:58.913Z,6.03
2023-04-25T03:10:26.992Z,5.68
2023-04-25T03:12:54.898Z,2.25
2023-04-25T03:15:23.245Z,5.63
2023-04-25T03:17:50.925Z,3.17
2023-04-25T03:20:18.577Z,1.73
2023-04-25T03:22:48.138Z,3.65
2023-04-25T03:25:16.019Z,4.50
2023-04-25T03:27:43.653Z,2.80
2023-04-25T03:30:12.195Z,2.85
2023-04-25T03:32:39.994Z,2.75
2023-04-25T03:35:08.519Z,3.13
2023-04-25T03:37:36.372Z,2.10
2023-04-25T03:40:07.244Z,6.50
2023-04-25T03:42:35.087Z,3.38
2023-04-25T03:45:03.267Z,5.00
2023-04-25T03:47:31.219Z,4.57
2023-04-25T03:49:59.367Z,5.28
2023-04-25T03:52:27.295Z,5.28
2023-04-25T03:54:55.149Z,5.38
2023-04-25T03:57:24.968Z,3.42
2023-04-25T03:59:52.921Z,4.72
2023-04-25T04:02:20.944Z,3.85
2023-04-25T04:04:48.808Z,4.60
2023-04-25T04:07:17.111Z,5.68
2023-04-25T04:09:45.110Z,4.03
2023-04-25T04:12:13.114Z,5.95
2023-04-25T04:14:42.195Z,3.80
2023-04-25T04:17:10.061Z,4.43
2023-04-25T04:19:38.120Z,3.95
2023-04-25T04:22:06.081Z,3.40
2023-04-25T04:24:34.262Z,3.50
2023-04-25T04:27:02.026Z,4.70
2023-04-25T04:29:30.115Z,4.10
2023-04-25T04:31:59.545Z,3.15
2023-04-25T04:34:28.179Z,4.32
2023-04-25T04:36:56.016Z,5.20
2023-04-25T04:39:23.639Z,4.15
2023-04-25T04:41:51.991Z,4.57
2023-04-25T04:44:19.604Z,2.92
2023-04-25T04:46:47.962Z,5.63
2023-04-25T04:49:17.124Z,2.28
2023-04-25T04:51:46.068Z,3.70
2023-04-25T04:54:14.090Z,7.25
2023-04-25T04:56:42.880Z,3.85
2023-04-25T04:59:10.944Z,4.72
2023-04-25T05:01:39.335Z,4.45
2023-04-25T05:04:08.355Z,3.67
2023-04-25T05:06:37.936Z,1.05
2023-04-25T05:09:05.775Z,4.95
2023-04-25T05:11:33.620Z,3.67
2023-04-25T05:14:01.398Z,3.15
2023-04-25T05:16:29.379Z,2.80
2023-04-25T05:18:57.287Z,2.40
2023-04-25T05:21:25.131Z,3.53
2023-04-25T05:23:54.497Z,5.53
2023-04-25T05:26:22.386Z,6.78
2023-04-25T05:28:51.851Z,3.90
2023-04-25T05:31:19.468Z,3.00
2023-04-25T05:33:47.126Z,2.22
2023-04-25T05:36:15.195Z,2.25
2023-04-25T05:38:44.043Z,4.32
2023-04-25T05:41:13.486Z,2.15
2023-04-25T05:43:46.241Z,3.20
2023-04-25T05:46:14.235Z,1.58
2023-04-25T05:48:41.963Z,3.80
2023-04-25T05:51:09.574Z,3.63
2023-04-25T05:53:38.371Z,3.58
2023-04-25T05:56:07.248Z,1.63
2023-04-25T05:58:36.240Z,3.65
2023-04-25T06:01:04.671Z,3.40
2023-04-25T06:03:33.360Z,2.45
2023-04-25T06:06:02.245Z,4.25
2023-04-25T06:08:30.352Z,3.28
2023-04-25T06:10:58.867Z,2.83
2023-04-25T06:13:26.940Z,5.53
2023-04-25T06:15:55.907Z,2.55
2023-04-25T06:18:23.685Z,4.78
2023-04-25T06:20:51.876Z,2.58
2023-04-25T06:23:19.464Z,3.28
2023-04-25T06:25:47.337Z,3.13
2023-04-25T06:28:15.030Z,2.92
2023-04-25T06:30:43.141Z,2.55
2023-04-25T06:33:12.213Z,3.58
2023-04-25T06:35:39.949Z,2.65
2023-04-25T06:38:07.536Z,3.35
2023-04-25T06:40:35.214Z,2.78
2023-04-25T06:43:03.518Z,2.90
2023-04-25T06:45:31.725Z,3.65
2023-04-25T06:48:00.006Z,1.90
2023-04-25T06:50:29.503Z,2.95
2023-04-25T06:52:57.295Z,3.75
2023-04-25T06:55:25.206Z,2.47
2023-04-25T06:57:53.658Z,3.47
2023-04-25T07:00:22.585Z,2.03
2023-04-25T07:02:51.497Z,5.03
2023-04-25T07:05:19.583Z,1.92
2023-04-25T07:07:48.933Z,3.65
2023-04-25T07:10:16.611Z,4.43
2023-04-25T07:12:44.644Z,2.83
2023-04-25T07:15:12.700Z,2.10
2023-04-25T07:17:40.742Z,3.17
2023-04-25T07:20:10.339Z,3.08
2023-04-25T07:22:38.255Z,4.88
2023-04-25T07:25:09.855Z,4.63
2023-04-25T07:27:37.811Z,2.63
2023-04-25T07:30:07.532Z,2.53
2023-04-25T07:32:35.844Z,3.70
2023-04-25T07:35:04.837Z,2.42
2023-04-25T07:37:32.896Z,2.92
2023-04-25T07:40:00.936Z,2.78
2023-04-25T07:42:30.498Z,1.77
2023-04-25T07:44:58.391Z,3.08
2023-04-25T07:47:26.495Z,3.17
2023-04-25T07:49:54.305Z,2.15
2023-04-25T07:52:22.418Z,2.15
2023-04-25T07:54:50.414Z,2.65
2023-04-25T07:57:19.384Z,3.63
2023-04-25T07:59:48.376Z,5.85
2023-04-25T08:02:16.161Z,3.67
2023-04-25T08:04:43.891Z,2.63
2023-04-25T08:07:11.917Z,4.63
2023-04-25T08:09:40.007Z,8.20
2023-04-25T08:12:08.420Z,44.50
2023-04-25T08:14:38.350Z,58.13
2023-04-25T08:17:09.033Z,67.70
2023-04-25T08:19:37.160Z,57.75
2023-04-25T08:22:05.032Z,44.15
2023-04-25T08:24:32.654Z,39.33
2023-04-25T08:27:02.194Z,42.13
2023-04-25T08:29:30.445Z,31.08
2023-04-25T08:31:58.423Z,41.13
2023-04-25T08:34:27.823Z,24.80
2023-04-25T08:36:55.788Z,25.92
2023-04-25T08:39:23.895Z,32.42
2023-04-25T08:41:53.715Z,24.35
2023-04-25T08:44:23.238Z,32.58
2023-04-25T08:46:52.705Z,23.85
2023-04-25T08:49:21.554Z,20.40
2023-04-25T08:51:52.721Z,16.38
2023-04-25T08:54:35.411Z,10.13
2023-04-25T08:57:05.652Z,16.08
2023-04-25T08:59:36.559Z,17.50
2023-04-25T09:02:05.469Z,10.88
2023-04-25T09:04:33.677Z,9.85
2023-04-25T09:07:03.684Z,21.05
2023-04-25T09:09:31.656Z,10.75
2023-04-25T09:12:00.797Z,8.75
2023-04-25T09:14:29.114Z,13.65
2023-04-25T09:17:08.822Z,11.75
2023-04-25T09:19:42.222Z,10.65
2023-04-25T09:22:12.064Z,15.82
2023-04-25T09:24:42.660Z,14.45
2023-04-25T09:27:12.219Z,11.10
2023-04-25T09:29:42.103Z,8.32
2023-04-25T09:32:28.136Z,14.55
2023-04-25T09:34:58.659Z,11.68
2023-04-25T09:37:30.849Z,9.57
2023-04-25T09:40:03.732Z,12.77
2023-04-25T09:42:33.033Z,8.23
2023-04-25T09:45:02.975Z,22.77
2023-04-25T09:47:31.224Z,19.83
2023-04-25T09:49:59.446Z,15.02
2023-04-25T09:52:29.100Z,12.13
2023-04-25T09:54:57.379Z,12.45
2023-04-25T09:57:27.206Z,16.50
2023-04-25T09:59:56.671Z,10.18
2023-04-25T10:02:27.152Z,15.35
2023-04-25T10:04:56.981Z,14.88
2023-04-25T10:07:27.263Z,17.23
2023-04-25T10:10:01.717Z,9.50
2023-04-25T10:12:29.482Z,14.20
2023-04-25T10:14:57.310Z,15.23
2023-04-25T10:17:25.653Z,18.55
2023-04-25T10:19:53.871Z,11.63
2023-04-25T10:22:31.399Z,13.18
2023-04-25T10:25:00.998Z,19.65
2023-04-25T10:27:29.682Z,13.48
2023-04-25T10:30:05.577Z,13.80
2023-04-25T10:32:34.545Z,9.43
2023-04-25T10:35:13.404Z,11.02
2023-04-25T10:37:58.325Z,11.15
2023-04-25T10:40:28.378Z,10.85
2023-04-25T10:42:57.292Z,8.02
2023-04-25T10:45:25.071Z,9.23
2023-04-25T10:47:52.783Z,5.55
2023-04-25T10:50:20.445Z,7.10
2023-04-25T10:52:48.724Z,11.20
2023-04-25T10:55:16.547Z,9.98
2023-04-25T10:57:49.454Z,6.53
2023-04-25T11:00:20.587Z,8.10
2023-04-25T11:02:50.359Z,10.23
2023-04-25T11:05:25.092Z,11.43
2023-04-25T11:08:06.429Z,7.30
2023-04-25T11:10:37.569Z,5.18
2023-04-25T11:13:07.444Z,8.48
2023-04-25T11:15:35.569Z,11.35
2023-04-25T11:18:04.512Z,9.75
2023-04-25T11:20:32.895Z,9.35
2023-04-25T11:25:31.103Z,10.75
2023-04-25T11:28:02.442Z,8.18
2023-04-25T11:30:32.696Z,16.50
2023-04-25T11:33:00.949Z,7.68
2023-04-25T11:35:28.897Z,9.43
2023-04-25T11:37:57.720Z,7.68
2023-04-25T11:40:26.263Z,5.13
2023-04-25T11:42:54.958Z,6.78
2023-04-25T11:45:25.278Z,4.00
2023-04-25T11:47:54.752Z,8.00
2023-04-25T11:50:22.642Z,8.88
2023-04-25T11:52:51.417Z,5.03
2023-04-25T11:55:21.149Z,6.90
2023-04-25T11:57:51.065Z,5.72
2023-04-25T12:00:21.490Z,5.30
2023-04-25T12:02:53.642Z,8.88
2023-04-25T12:05:32.741Z,9.60
2023-04-25T12:08:13.472Z,8.52
2023-04-25T12:10:42.191Z,5.18
2023-04-25T12:13:23.941Z,6.78
2023-04-25T12:15:52.025Z,11.73
2023-04-25T12:18:22.928Z,5.15
2023-04-25T12:20:54.289Z,3.38
2023-04-25T12:23:28.406Z,5.75
2023-04-25T12:25:56.830Z,5.60
2023-04-25T12:28:27.866Z,6.70
2023-04-25T12:30:58.939Z,8.00
2023-04-25T12:33:27.922Z,3.75
2023-04-25T12:35:58.451Z,6.38
2023-04-25T12:38:27.703Z,6.70
2023-04-25T12:40:56.273Z,4.25
2023-04-25T12:43:24.052Z,5.18
2023-04-25T12:45:52.347Z,2.78
2023-04-25T12:48:20.421Z,4.40
2023-04-25T12:50:50.123Z,4.90
2023-04-25T12:53:19.847Z,4.18
2023-04-25T12:55:48.478Z,5.80
2023-04-25T12:58:17.035Z,3.45
2023-04-25T13:00:45.497Z,5.72
2023-04-25T13:03:14.221Z,7.60
2023-04-25T13:05:42.667Z,5.20
2023-04-25T13:08:10.665Z,3.13
2023-04-25T13:10:40.499Z,4.55
2023-04-25T13:13:08.479Z,6.18
2023-04-25T13:15:36.591Z,10.63
2023-04-25T13:18:06.535Z,9.13
2023-04-25T13:20:34.961Z,6.03
2023-04-25T13:23:03.182Z,5.28
2023-04-25T13:25:31.276Z,8.13
2023-04-25T13:28:00.550Z,8.98
2023-04-25T13:30:28.641Z,6.15
2023-04-25T13:32:57.952Z,6.60
2023-04-25T13:35:25.753Z,8.68
2023-04-25T13:37:53.387Z,9.82
2023-04-25T13:40:22.815Z,8.20
2023-04-25T13:42:52.638Z,9.68
2023-04-25T13:45:22.176Z,5.05
2023-04-25T13:47:51.049Z,8.38
2023-04-25T13:50:19.401Z,6.28
2023-04-25T13:52:47.240Z,7.70
2023-04-25T13:55:15.157Z,8.40
2023-04-25T13:57:43.010Z,7.35
2023-04-25T14:00:12.125Z,10.57
2023-04-25T14:02:41.630Z,11.82
2023-04-25T14:05:10.607Z,10.13
2023-04-25T14:07:39.345Z,7.57
2023-04-25T14:10:08.253Z,11.85
2023-04-25T14:12:36.241Z,9.35
2023-04-25T14:15:04.678Z,15.18
2023-04-25T14:17:32.559Z,7.38
2023-04-25T14:20:02.021Z,7.75
2023-04-25T14:22:29.743Z,7.65
2023-04-25T14:24:57.444Z,7.10
2023-04-25T14:27:28.588Z,10.20
2023-04-25T14:29:57.473Z,10.93
2023-04-25T14:32:25.706Z,5.40
2023-04-25T14:34:53.461Z,10.52
2023-04-25T14:37:22.423Z,6.18
2023-04-25T14:39:50.459Z,10.82
2023-04-25T14:42:18.586Z,6.75
2023-04-25T14:44:47.414Z,5.05
2023-04-25T14:47:15.394Z,8.35
2023-04-25T14:49:43.473Z,7.38
2023-04-25T14:52:11.568Z,4.88
2023-04-25T14:54:40.976Z,8.95
2023-04-25T14:57:08.828Z,8.18
2023-04-25T14:59:36.610Z,5.25
2023-04-25T15:02:04.465Z,9.90
2023-04-25T15:04:32.963Z,10.50
2023-04-25T15:07:00.918Z,4.90
2023-04-25T15:09:29.735Z,8.82
2023-04-25T15:11:59.511Z,4.63
2023-04-25T15:14:27.610Z,7.25
2023-04-25T15:16:55.615Z,5.22
2023-04-25T15:19:24.345Z,3.05
2023-04-25T15:21:52.105Z,7.88
2023-04-25T15:24:20.379Z,6.97
2023-04-25T15:26:48.224Z,6.43
2023-04-25T15:29:17.966Z,4.53
2023-04-25T15:31:46.501Z,5.80
2023-04-25T15:34:14.728Z,5.10
2023-04-25T15:36:42.564Z,10.60
2023-04-25T15:39:10.972Z,7.55
2023-04-25T15:41:39.429Z,6.65
2023-04-25T15:44:08.316Z,7.60
2023-04-25T15:46:37.770Z,5.22
2023-04-25T15:49:06.160Z,6.68
2023-04-25T15:51:34.733Z,7.72
2023-04-25T15:54:04.483Z,8.75
2023-04-25T15:56:32.444Z,6.80
2023-04-25T15:59:00.164Z,7.20
2023-04-25T16:01:31.121Z,8.23
2023-04-25T16:04:00.771Z,9.52
2023-04-25T16:06:28.963Z,9.05
2023-04-25T16:08:57.500Z,11.52
2023-04-25T16:11:25.990Z,9.13
2023-04-25T16:13:54.106Z,20.55
2023-04-25T16:16:22.228Z,23.90
2023-04-25T16:18:50.313Z,29.25
2023-04-25T16:21:19.630Z,37.15
2023-04-25T16:23:47.604Z,30.00
2023-04-25T16:26:16.208Z,27.92
2023-04-25T16:28:44.398Z,26.27
2023-04-25T16:31:12.406Z,32.28
2023-04-25T16:33:40.119Z,26.85
2023-04-25T16:36:09.499Z,29.30
2023-04-25T16:38:39.730Z,28.45
2023-04-25T16:41:08.616Z,26.92
2023-04-25T16:43:36.490Z,22.80
2023-04-25T16:46:04.574Z,22.55
2023-04-25T16:48:32.126Z,23.98
2023-04-25T16:51:00.402Z,26.25
2023-04-25T16:53:28.633Z,34.67
2023-04-25T16:55:58.672Z,23.40
2023-04-25T16:58:27.138Z,20.40
2023-04-25T17:00:56.075Z,20.30
2023-04-25T17:03:24.125Z,19.85
2023-04-25T17:05:52.138Z,21.23
2023-04-25T17:08:19.702Z,18.85
2023-04-25T17:10:47.428Z,15.65
2023-04-25T17:13:17.238Z,19.20
2023-04-25T17:15:45.322Z,17.40
2023-04-25T17:18:12.989Z,15.98
2023-04-25T17:20:40.957Z,15.68
2023-04-25T17:23:08.642Z,14.35
2023-04-25T17:25:36.571Z,15.68
2023-04-25T17:28:04.486Z,11.27
2023-04-25T17:30:34.491Z,11.32
2023-04-25T17:33:02.239Z,13.80
2023-04-25T17:35:30.163Z,15.70
2023-04-25T17:37:58.100Z,13.40
2023-04-25T17:40:26.997Z,12.13
2023-04-25T17:42:54.661Z,11.82
2023-04-25T17:45:22.612Z,13.77
2023-04-25T17:47:51.818Z,17.02
2023-04-25T17:50:20.692Z,11.38
2023-04-25T17:52:49.490Z,17.35
2023-04-25T17:55:17.478Z,14.07
2023-04-25T17:57:45.241Z,9.43
2023-04-25T18:00:14.350Z,10.23
2023-04-25T18:02:42.156Z,14.02
2023-04-25T18:05:11.373Z,10.52
2023-04-25T18:07:39.745Z,11.52
2023-04-25T18:10:09.460Z,13.45
2023-04-25T18:12:38.458Z,9.50
2023-04-25T18:15:07.739Z,6.95
2023-04-25T18:17:40.450Z,10.70
2023-04-25T18:20:14.982Z,7.57
2023-04-25T18:22:44.559Z,7.93
2023-04-25T18:25:13.686Z,10.82
2023-04-25T18:27:42.410Z,7.57
2023-04-25T18:30:12.779Z,7.95
2023-04-25T18:32:41.962Z,6.68
2023-04-25T18:35:12.209Z,9.35
2023-04-25T18:37:42.058Z,5.20
2023-04-25T18:40:13.967Z,8.20
2023-04-25T18:42:42.036Z,8.85
2023-04-25T18:45:11.419Z,6.68
2023-04-25T18:47:39.652Z,9.77
2023-04-25T18:50:09.003Z,11.07
2023-04-25T18:52:38.166Z,8.40
2023-04-25T18:55:07.266Z,8.45
2023-04-25T18:57:35.132Z,8.50
2023-04-25T19:00:05.668Z,8.02
2023-04-25T19:02:33.602Z,8.85
2023-04-25T19:05:01.530Z,6.80
2023-04-25T19:07:30.818Z,8.20
2023-04-25T19:10:00.646Z,5.82
2023-04-25T19:12:28.638Z,8.13
2023-04-25T19:14:56.887Z,8.43
2023-04-25T19:17:24.712Z,4.05
2023-04-25T19:19:52.553Z,10.88
2023-04-25T19:22:20.673Z,5.63
2023-04-25T19:24:53.047Z,8.95
2023-04-25T19:27:41.241Z,7.53
2023-04-25T19:30:10.781Z,4.65
2023-04-25T19:32:39.607Z,8.77
2023-04-25T19:35:11.415Z,7.70
2023-04-25T19:37:46.295Z,5.82
2023-04-25T19:40:16.041Z,5.60
2023-04-25T19:42:45.826Z,6.00
2023-04-25T19:45:13.833Z,5.97
2023-04-25T19:47:42.464Z,4.85
2023-04-25T19:50:11.866Z,7.65
2023-04-25T19:52:40.261Z,7.30
2023-04-25T19:55:10.274Z,6.85
2023-04-25T19:57:38.290Z,3.55
2023-04-25T20:00:10.890Z,6.32
2023-04-25T20:02:39.312Z,7.18
2023-04-25T20:05:09.882Z,6.18
2023-04-25T20:07:37.866Z,6.00
2023-04-25T20:10:07.893Z,5.00
2023-04-25T20:12:37.205Z,10.13
2023-04-25T20:15:05.602Z,3.95
2023-04-25T20:17:35.143Z,6.20
2023-04-25T20:20:05.030Z,6.85
2023-04-25T20:22:36.083Z,3.67
2023-04-25T20:25:05.500Z,6.87
2023-04-25T20:27:33.442Z,8.00
2023-04-25T20:30:04.772Z,5.65
2023-04-25T20:32:34.295Z,5.55
2023-04-25T20:35:03.565Z,7.57
2023-04-25T20:37:32.620Z,5.50
2023-04-25T20:40:00.863Z,6.18
2023-04-25T20:42:28.705Z,5.30
2023-04-25T20:44:57.108Z,8.13
2023-04-25T20:47:25.204Z,5.30
2023-04-25T20:49:54.467Z,4.80
2023-04-25T20:52:22.771Z,4.28
2023-04-25T20:54:52.421Z,6.60
2023-04-25T20:57:20.182Z,3.00
2023-04-25T20:59:49.567Z,5.00
2023-04-25T21:02:19.300Z,3.58
2023-04-25T21:04:47.444Z,8.50
2023-04-25T21:07:16.720Z,4.65
2023-04-25T21:09:45.608Z,3.35
2023-04-25T21:12:13.673Z,4.15
2023-04-25T21:14:41.311Z,3.47
2023-04-25T21:17:09.141Z,6.20
2023-04-25T21:19:36.883Z,5.35
2023-04-25T21:22:04.648Z,2.78
2023-04-25T21:24:33.950Z,4.25
2023-04-25T21:27:02.566Z,3.95
2023-04-25T21:29:31.040Z,5.18
2023-04-25T21:31:59.128Z,5.60
2023-04-25T21:34:27.092Z,4.85
2023-04-25T21:36:55.050Z,5.45
2023-04-25T21:39:23.638Z,6.00
2023-04-25T21:41:52.797Z,4.80
2023-04-25T21:44:20.780Z,3.22
2023-04-25T21:46:48.528Z,2.70
2023-04-25T21:49:16.735Z,3.70
2023-04-25T21:51:44.544Z,4.63
2023-04-25T21:54:12.666Z,4.88
2023-04-25T21:56:40.513Z,3.60
2023-04-25T21:59:10.229Z,13.15
2023-04-25T22:01:38.455Z,17.02
2023-04-25T22:04:06.894Z,14.07
2023-04-25T22:06:34.974Z,8.85
2023-04-25T22:09:04.880Z,10.52
2023-04-25T22:11:33.671Z,6.97
2023-04-25T22:14:01.433Z,10.38
2023-04-25T22:16:30.614Z,11.65
2023-04-25T22:18:59.384Z,9.65
2023-04-25T22:21:27.860Z,9.55
2023-04-25T22:23:56.696Z,6.15
2023-04-25T22:26:25.467Z,8.60
2023-04-25T22:28:53.562Z,8.30
2023-04-25T22:31:21.517Z,9.30
2023-04-25T22:33:51.489Z,8.60
2023-04-25T22:36:19.700Z,6.60
2023-04-25T22:38:47.700Z,6.28
2023-04-25T22:41:15.687Z,9.70
2023-04-25T22:43:43.407Z,16.83
2023-04-25T22:46:16.768Z,7.88
2023-04-25T22:48:44.978Z,9.32
2023-04-25T22:51:14.491Z,9.40
2023-04-25T22:53:45.474Z,9.27
2023-04-25T22:56:13.825Z,6.47
2023-04-25T22:58:41.478Z,4.45
2023-04-25T23:01:09.474Z,7.63
2023-04-25T23:03:38.153Z,8.32
2023-04-25T23:06:06.713Z,5.25
2023-04-25T23:08:35.809Z,4.70
2023-04-25T23:11:07.783Z,5.20
2023-04-25T23:16:09.053Z,9.38
2023-04-25T23:18:36.701Z,6.07
2023-04-25T23:21:07.378Z,5.53
2023-04-25T23:23:36.772Z,3.58
2023-04-25T23:26:08.236Z,6.00
2023-04-25T23:28:39.908Z,5.75
2023-04-25T23:31:11.671Z,4.47
2023-04-25T23:33:40.096Z,3.35
2023-04-25T23:36:08.639Z,6.82
2023-04-25T23:38:37.937Z,4.03
2023-04-25T23:41:05.764Z,7.32
2023-04-25T23:43:33.569Z,4.18
2023-04-25T23:46:01.509Z,6.72
2023-04-25T23:48:29.652Z,5.40
2023-04-25T23:50:57.710Z,5.63
2023-04-25T23:53:25.472Z,5.55
2023-04-25T23:55:54.589Z,2.67
2023-04-25T23:58:22.545Z,4.85
